createdAt,value
2023-04-01T00:00:32.000Z,1713.0
2023-04-01T00:01:31.000Z,1724.0
2023-04-01T00:02:32.000Z,1709.0
2023-04-01T00:03:32.000Z,1656.0
2023-04-01T00:04:31.000Z,1682.0
2023-04-01T00:05:32.000Z,1627.0
2023-04-01T00:06:32.000Z,1600.0
2023-04-01T00:07:32.000Z,1637.0
2023-04-01T00:08:32.000Z,1610.0
2023-04-01T00:09:31.000Z,1639.0
2023-04-01T00:10:32.000Z,1625.0
2023-04-01T00:11:32.000Z,1610.0
2023-04-01T00:12:31.000Z,1652.0
2023-04-01T00:13:32.000Z,1659.0
2023-04-01T00:14:31.000Z,1681.0
2023-04-01T00:15:32.000Z,1744.0
2023-04-01T00:16:32.000Z,1673.0
2023-04-01T00:17:31.000Z,1606.0
2023-04-01T00:18:32.000Z,1639.0
2023-04-01T00:19:32.000Z,1666.0
2023-04-01T00:20:32.000Z,1659.0
2023-04-01T00:21:32.000Z,1718.0
2023-04-01T00:22:31.000Z,1694.0
2023-04-01T00:23:32.000Z,1665.0
2023-04-01T00:24:32.000Z,1661.0
2023-04-01T00:25:31.000Z,1704.0
2023-04-01T00:26:32.000Z,1668.0
2023-04-01T00:27:31.000Z,1596.0
2023-04-01T00:28:32.000Z,1592.0
2023-04-01T00:29:32.000Z,1616.0
2023-04-01T00:30:31.000Z,1627.0
2023-04-01T00:31:32.000Z,1689.0
2023-04-01T00:32:32.000Z,1675.0
2023-04-01T00:33:32.000Z,1718.0
2023-04-01T00:34:32.000Z,1684.0
2023-04-01T00:35:31.000Z,1678.0
2023-04-01T00:36:32.000Z,1609.0
2023-04-01T00:37:32.000Z,1626.0
2023-04-01T00:38:31.000Z,1683.0
2023-04-01T00:39:32.000Z,1666.0
2023-04-01T00:40:31.000Z,1694.0
2023-04-01T00:41:32.000Z,1685.0
2023-04-01T00:42:32.000Z,1655.0
2023-04-01T00:43:31.000Z,1620.0
2023-04-01T00:44:32.000Z,1600.0
2023-04-01T00:45:32.000Z,1559.0
2023-04-01T00:46:31.000Z,1551.0
2023-04-01T00:47:32.000Z,1587.0
2023-04-01T00:48:32.000Z,1654.0
2023-04-01T00:49:32.000Z,1696.0
2023-04-01T00:50:32.000Z,1669.0
2023-04-01T00:51:31.000Z,1658.0
2023-04-01T00:52:32.000Z,1582.0
2023-04-01T00:53:32.000Z,1595.0
2023-04-01T00:54:31.000Z,1626.0
2023-04-01T00:55:32.000Z,1623.0
2023-04-01T00:56:32.000Z,1676.0
2023-04-01T00:57:32.000Z,1648.0
2023-04-01T00:58:32.000Z,1619.0
2023-04-01T00:59:31.000Z,1615.0
2023-04-01T01:00:32.000Z,1608.0
2023-04-01T01:01:32.000Z,1596.0
2023-04-01T01:02:31.000Z,1655.0
2023-04-01T01:03:32.000Z,1687.0
2023-04-01T01:04:31.000Z,1673.0
2023-04-01T01:05:32.000Z,1692.0
2023-04-01T01:06:32.000Z,1679.0
2023-04-01T01:07:31.000Z,1699.0
2023-04-01T01:08:32.000Z,1630.0
2023-04-01T01:09:32.000Z,1617.0
2023-04-01T01:10:32.000Z,1625.0
2023-04-01T01:11:32.000Z,1651.0
2023-04-01T01:12:31.000Z,1656.0
2023-04-01T01:13:32.000Z,1668.0
2023-04-01T01:14:32.000Z,1678.0
2023-04-01T01:15:31.000Z,1657.0
2023-04-01T01:16:32.000Z,1641.0
2023-04-01T01:17:31.000Z,1635.0
2023-04-01T01:18:32.000Z,1667.0
2023-04-01T01:19:32.000Z,1635.0
2023-04-01T01:20:31.000Z,1638.0
2023-04-01T01:21:32.000Z,1607.0
2023-04-01T01:22:32.000Z,1633.0
2023-04-01T01:23:32.000Z,1640.0
2023-04-01T01:24:32.000Z,1689.0
2023-04-01T01:25:31.000Z,1733.0
2023-04-01T01:26:32.000Z,1641.0
2023-04-01T01:27:32.000Z,1668.0
2023-04-01T01:28:31.000Z,1725.0
2023-04-01T01:29:32.000Z,1688.0
2023-04-01T01:30:31.000Z,1665.0
2023-04-01T01:31:32.000Z,1617.0
2023-04-01T01:32:32.000Z,1599.0
2023-04-01T01:33:31.000Z,1617.0
2023-04-01T01:34:32.000Z,1648.0
2023-04-01T01:35:32.000Z,1673.0
2023-04-01T01:36:32.000Z,1638.0
2023-04-01T01:37:32.000Z,1635.0
2023-04-01T01:38:31.000Z,1703.0
2023-04-01T01:39:32.000Z,1690.0
2023-04-01T01:40:32.000Z,1659.0
2023-04-01T01:41:31.000Z,1668.0
2023-04-01T01:42:32.000Z,1635.0
2023-04-01T01:43:31.000Z,1633.0
2023-04-01T01:44:31.000Z,1626.0
2023-04-01T01:45:32.000Z,1618.0
2023-04-01T01:46:32.000Z,1632.0
2023-04-01T01:47:32.000Z,1642.0
2023-04-01T01:48:32.000Z,1677.0
2023-04-01T01:49:31.000Z,1714.0
2023-04-01T01:50:32.000Z,1752.0
2023-04-01T01:51:32.000Z,1754.0
2023-04-01T01:52:31.000Z,1816.0
2023-04-01T01:53:32.000Z,1826.0
2023-04-01T01:54:31.000Z,1861.0
2023-04-01T01:55:32.000Z,1876.0
2023-04-01T01:56:32.000Z,1929.0
2023-04-01T01:57:31.000Z,1874.0
2023-04-01T01:58:32.000Z,1886.0
2023-04-01T01:59:32.000Z,1899.0
2023-04-01T02:00:31.000Z,1879.0
2023-04-01T02:01:32.000Z,1872.0
2023-04-01T02:02:31.000Z,1835.0
2023-04-01T02:03:32.000Z,1754.0
2023-04-01T02:04:32.000Z,1755.0
2023-04-01T02:05:31.000Z,1798.0
2023-04-01T02:06:32.000Z,1819.0
2023-04-01T02:07:31.000Z,1766.0
2023-04-01T02:08:32.000Z,1788.0
2023-04-01T02:09:32.000Z,1875.0
2023-04-01T02:10:31.000Z,1894.0
2023-04-01T02:11:32.000Z,1862.0
2023-04-01T02:12:32.000Z,1861.0
2023-04-01T02:13:32.000Z,1876.0
2023-04-01T02:14:32.000Z,1936.0
2023-04-01T02:15:31.000Z,1990.0
2023-04-01T02:16:32.000Z,1935.0
2023-04-01T02:17:32.000Z,1933.0
2023-04-01T02:18:31.000Z,1933.0
2023-04-01T02:19:32.000Z,1909.0
2023-04-01T02:20:31.000Z,1896.0
2023-04-01T02:21:32.000Z,1878.0
2023-04-01T02:22:32.000Z,1884.0
2023-04-01T02:23:31.000Z,1941.0
2023-04-01T02:24:32.000Z,1923.0
2023-04-01T02:25:32.000Z,1914.0
2023-04-01T02:26:31.000Z,1856.0
2023-04-01T02:27:32.000Z,1959.0
2023-04-01T02:28:31.000Z,1977.0
2023-04-01T02:29:32.000Z,1940.0
2023-04-01T02:30:32.000Z,1978.0
2023-04-01T02:31:31.000Z,2010.0
2023-04-01T02:32:32.000Z,2028.0
2023-04-01T02:33:31.000Z,2027.0
2023-04-01T02:34:32.000Z,2049.0
2023-04-01T02:35:32.000Z,2020.0
2023-04-01T02:36:31.000Z,2086.0
2023-04-01T02:37:32.000Z,2018.0
2023-04-01T02:38:32.000Z,1999.0
2023-04-01T02:39:31.000Z,2010.0
2023-04-01T02:40:32.000Z,2041.0
2023-04-01T02:41:31.000Z,2031.0
2023-04-01T02:42:32.000Z,2028.0
2023-04-01T02:43:32.000Z,2041.0
2023-04-01T02:44:31.000Z,2126.0
2023-04-01T02:45:32.000Z,2150.0
2023-04-01T02:46:32.000Z,2188.0
2023-04-01T02:47:31.000Z,2207.0
2023-04-01T02:48:32.000Z,2199.0
2023-04-01T02:49:32.000Z,2167.0
2023-04-01T02:50:31.000Z,2135.0
2023-04-01T02:51:32.000Z,2143.0
2023-04-01T02:52:31.000Z,2154.0
2023-04-01T02:53:32.000Z,1112.0
2023-04-01T02:54:32.000Z,838.0
2023-04-01T02:55:31.000Z,815.0
2023-04-01T02:56:32.000Z,873.0
2023-04-01T02:57:32.000Z,908.0
2023-04-01T02:58:32.000Z,943.0
2023-04-01T02:59:32.000Z,1100.0
2023-04-01T03:00:31.000Z,1140.0
2023-04-01T03:01:32.000Z,1228.0
2023-04-01T03:02:32.000Z,1371.0
2023-04-01T03:03:31.000Z,1310.0
2023-04-01T03:04:32.000Z,1414.0
2023-04-01T03:05:31.000Z,1687.0
2023-04-01T03:06:32.000Z,2009.0
2023-04-01T03:07:32.000Z,2156.0
2023-04-01T03:08:31.000Z,2291.0
2023-04-01T03:09:32.000Z,2327.0
2023-04-01T03:10:32.000Z,2356.0
2023-04-01T03:11:31.000Z,2421.0
2023-04-01T03:12:32.000Z,2339.0
2023-04-01T03:13:31.000Z,2362.0
2023-04-01T03:14:32.000Z,2356.0
2023-04-01T03:15:32.000Z,2320.0
2023-04-01T03:16:31.000Z,2339.0
2023-04-01T03:17:32.000Z,2339.0
2023-04-01T03:18:31.000Z,2270.0
2023-04-01T03:19:32.000Z,2225.0
2023-04-01T03:20:32.000Z,2234.0
2023-04-01T03:21:31.000Z,2217.0
2023-04-01T03:22:32.000Z,2170.0
2023-04-01T03:23:32.000Z,2172.0
2023-04-01T03:24:32.000Z,2178.0
2023-04-01T03:25:32.000Z,2160.0
2023-04-01T03:26:31.000Z,2261.0
2023-04-01T03:27:32.000Z,2247.0
2023-04-01T03:28:32.000Z,2220.0
2023-04-01T03:29:31.000Z,2192.0
2023-04-01T03:30:32.000Z,2201.0
2023-04-01T03:31:31.000Z,2144.0
2023-04-01T03:32:32.000Z,2122.0
2023-04-01T03:33:32.000Z,2167.0
2023-04-01T03:34:31.000Z,2256.0
2023-04-01T03:35:32.000Z,2242.0
2023-04-01T03:36:32.000Z,2169.0
2023-04-01T03:37:31.000Z,2149.0
2023-04-01T03:38:32.000Z,2259.0
2023-04-01T03:39:31.000Z,2173.0
2023-04-01T03:40:32.000Z,2146.0
2023-04-01T03:41:32.000Z,2131.0
2023-04-01T03:42:31.000Z,2128.0
2023-04-01T03:43:32.000Z,2146.0
2023-04-01T03:44:32.000Z,2173.0
2023-04-01T03:45:31.000Z,2175.0
2023-04-01T03:46:32.000Z,2298.0
2023-04-01T03:47:32.000Z,2174.0
2023-04-01T03:48:32.000Z,2131.0
2023-04-01T03:49:32.000Z,2210.0
2023-04-01T03:50:31.000Z,2146.0
2023-04-01T03:51:32.000Z,2122.0
2023-04-01T03:52:32.000Z,2206.0
2023-04-01T03:53:31.000Z,2163.0
2023-04-01T03:54:32.000Z,2267.0
2023-04-01T03:55:32.000Z,2364.0
2023-04-01T03:56:31.000Z,2380.0
2023-04-01T03:57:32.000Z,2383.0
2023-04-01T03:58:31.000Z,2396.0
2023-04-01T03:59:32.000Z,2376.0
2023-04-01T04:00:32.000Z,2371.0
2023-04-01T04:01:31.000Z,2291.0
2023-04-01T04:02:32.000Z,2385.0
2023-04-01T04:03:31.000Z,2306.0
2023-04-01T04:04:32.000Z,2347.0
2023-04-01T04:05:32.000Z,2418.0
2023-04-01T04:06:31.000Z,2405.0
2023-04-01T04:07:32.000Z,2346.0
2023-04-01T04:08:32.000Z,2363.0
2023-04-01T04:09:32.000Z,2392.0
2023-04-01T04:10:32.000Z,2436.0
2023-04-01T04:11:31.000Z,2397.0
2023-04-01T04:12:32.000Z,2315.0
2023-04-01T04:13:32.000Z,2319.0
2023-04-01T04:14:31.000Z,2309.0
2023-04-01T04:15:32.000Z,2330.0
2023-04-01T04:16:31.000Z,2300.0
2023-04-01T04:17:32.000Z,2264.0
2023-04-01T04:18:32.000Z,2144.0
2023-04-01T04:19:31.000Z,2042.0
2023-04-01T04:20:32.000Z,1987.0
2023-04-01T04:21:32.000Z,1936.0
2023-04-01T04:22:31.000Z,1983.0
2023-04-01T04:23:32.000Z,1928.0
2023-04-01T04:24:31.000Z,1976.0
2023-04-01T04:25:32.000Z,1893.0
2023-04-01T04:26:32.000Z,1885.0
2023-04-01T04:27:31.000Z,1918.0
2023-04-01T04:28:32.000Z,1939.0
2023-04-01T04:29:31.000Z,1907.0
2023-04-01T04:30:32.000Z,1880.0
2023-04-01T04:31:32.000Z,1885.0
2023-04-01T04:32:31.000Z,1953.0
2023-04-01T04:33:32.000Z,1909.0
2023-04-01T04:34:32.000Z,1817.0
2023-04-01T04:35:32.000Z,1854.0
2023-04-01T04:36:32.000Z,1886.0
2023-04-01T04:37:31.000Z,1921.0
2023-04-01T04:38:32.000Z,1974.0
2023-04-01T04:39:32.000Z,1962.0
2023-04-01T04:40:31.000Z,1877.0
2023-04-01T04:41:32.000Z,1931.0
2023-04-01T04:42:31.000Z,2035.0
2023-04-01T04:43:32.000Z,2021.0
2023-04-01T04:44:32.000Z,2112.0
2023-04-01T04:45:32.000Z,2056.0
2023-04-01T04:46:32.000Z,2078.0
2023-04-01T04:47:32.000Z,2055.0
2023-04-01T04:48:31.000Z,2126.0
2023-04-01T04:49:32.000Z,2124.0
2023-04-01T04:50:32.000Z,2116.0
2023-04-01T04:51:31.000Z,2135.0
2023-04-01T04:52:32.000Z,2119.0
2023-04-01T04:53:31.000Z,2150.0
2023-04-01T04:54:32.000Z,2156.0
2023-04-01T04:55:32.000Z,2219.0
2023-04-01T04:56:31.000Z,2168.0
2023-04-01T04:57:32.000Z,2137.0
2023-04-01T04:58:32.000Z,2092.0
2023-04-01T04:59:31.000Z,2103.0
2023-04-01T05:00:32.000Z,2129.0
2023-04-01T05:01:31.000Z,2125.0
2023-04-01T05:02:32.000Z,2190.0
2023-04-01T05:03:32.000Z,2105.0
2023-04-01T05:04:31.000Z,2114.0
2023-04-01T05:05:32.000Z,2066.0
2023-04-01T05:06:31.000Z,2046.0
2023-04-01T05:07:32.000Z,1987.0
2023-04-01T05:08:32.000Z,2109.0
2023-04-01T05:09:31.000Z,2066.0
2023-04-01T05:10:32.000Z,2118.0
2023-04-01T05:11:32.000Z,2125.0
2023-04-01T05:12:31.000Z,2171.0
2023-04-01T05:13:32.000Z,2114.0
2023-04-01T05:14:31.000Z,2153.0
2023-04-01T05:15:32.000Z,2186.0
2023-04-01T05:16:32.000Z,2161.0
2023-04-01T05:17:31.000Z,2091.0
2023-04-01T05:18:32.000Z,2133.0
2023-04-01T05:19:31.000Z,2137.0
2023-04-01T05:20:32.000Z,2120.0
2023-04-01T05:21:32.000Z,2075.0
2023-04-01T05:22:31.000Z,2125.0
2023-04-01T05:23:32.000Z,2094.0
2023-04-01T05:24:32.000Z,2125.0
2023-04-01T05:25:31.000Z,2175.0
2023-04-01T05:26:32.000Z,2197.0
2023-04-01T05:27:31.000Z,2129.0
2023-04-01T05:28:32.000Z,2188.0
2023-04-01T05:29:32.000Z,2255.0
2023-04-01T05:30:31.000Z,2086.0
2023-04-01T05:31:32.000Z,2052.0
2023-04-01T05:32:31.000Z,2069.0
2023-04-01T05:33:32.000Z,2067.0
2023-04-01T05:34:32.000Z,2086.0
2023-04-01T05:35:31.000Z,2072.0
2023-04-01T05:36:32.000Z,1962.0
2023-04-01T05:37:32.000Z,2019.0
2023-04-01T05:38:31.000Z,2006.0
2023-04-01T05:39:32.000Z,1986.0
2023-04-01T05:40:31.000Z,1951.0
2023-04-01T05:41:32.000Z,1956.0
2023-04-01T05:42:32.000Z,1934.0
2023-04-01T05:43:31.000Z,1920.0
2023-04-01T05:44:32.000Z,2013.0
2023-04-01T05:45:32.000Z,2019.0
2023-04-01T05:46:31.000Z,2106.0
2023-04-01T05:47:32.000Z,2089.0
2023-04-01T05:48:32.000Z,2119.0
2023-04-01T05:49:31.000Z,2070.0
2023-04-01T05:50:32.000Z,2105.0
2023-04-01T05:51:31.000Z,2016.0
2023-04-01T05:52:32.000Z,2068.0
2023-04-01T05:53:32.000Z,1959.0
2023-04-01T05:54:31.000Z,1988.0
2023-04-01T05:55:32.000Z,2076.0
2023-04-01T05:56:31.000Z,2047.0
2023-04-01T05:57:32.000Z,1959.0
2023-04-01T05:58:32.000Z,1896.0
2023-04-01T05:59:31.000Z,1931.0
2023-04-01T06:00:32.000Z,1911.0
2023-04-01T06:01:32.000Z,1973.0
2023-04-01T06:02:31.000Z,1952.0
2023-04-01T06:03:32.000Z,1946.0
2023-04-01T06:04:31.000Z,1877.0
2023-04-01T06:05:32.000Z,1739.0
2023-04-01T06:06:32.000Z,1720.0
2023-04-01T06:07:31.000Z,1714.0
2023-04-01T06:08:32.000Z,1738.0
2023-04-01T06:09:31.000Z,1762.0
2023-04-01T06:10:32.000Z,1875.0
2023-04-01T06:11:32.000Z,1847.0
2023-04-01T06:12:31.000Z,1816.0
2023-04-01T06:13:32.000Z,1892.0
2023-04-01T06:14:32.000Z,1865.0
2023-04-01T06:15:31.000Z,1922.0
2023-04-01T06:16:32.000Z,1873.0
2023-04-01T06:17:31.000Z,1851.0
2023-04-01T06:18:32.000Z,1844.0
2023-04-01T06:19:32.000Z,1904.0
2023-04-01T06:20:31.000Z,1845.0
2023-04-01T06:21:32.000Z,1755.0
2023-04-01T06:22:32.000Z,1833.0
2023-04-01T06:23:32.000Z,1810.0
2023-04-01T06:24:32.000Z,1852.0
2023-04-01T06:25:31.000Z,1802.0
2023-04-01T06:26:32.000Z,1769.0
2023-04-01T06:27:32.000Z,1830.0
2023-04-01T06:28:31.000Z,1837.0
2023-04-01T06:29:32.000Z,1794.0
2023-04-01T06:30:31.000Z,1831.0
2023-04-01T06:31:32.000Z,1823.0
2023-04-01T06:32:32.000Z,1841.0
2023-04-01T06:33:31.000Z,1846.0
2023-04-01T06:34:32.000Z,1838.0
2023-04-01T06:35:31.000Z,1805.0
2023-04-01T06:36:32.000Z,1833.0
2023-04-01T06:37:32.000Z,1863.0
2023-04-01T06:38:31.000Z,1865.0
2023-04-01T06:39:32.000Z,1804.0
2023-04-01T06:40:32.000Z,1881.0
2023-04-01T06:41:31.000Z,1855.0
2023-04-01T06:42:32.000Z,1802.0
2023-04-01T06:43:31.000Z,1761.0
2023-04-01T06:44:31.000Z,1739.0
2023-04-01T06:45:32.000Z,1776.0
2023-04-01T06:46:31.000Z,1740.0
2023-04-01T06:47:32.000Z,1729.0
2023-04-01T06:48:32.000Z,1715.0
2023-04-01T06:49:31.000Z,1768.0
2023-04-01T06:50:32.000Z,1868.0
2023-04-01T06:51:32.000Z,1900.0
2023-04-01T06:52:31.000Z,1912.0
2023-04-01T06:53:32.000Z,1895.0
2023-04-01T06:54:31.000Z,1855.0
2023-04-01T06:55:32.000Z,1909.0
2023-04-01T06:56:32.000Z,1890.0
2023-04-01T06:57:31.000Z,1967.0
2023-04-01T06:58:32.000Z,2063.0
2023-04-01T06:59:32.000Z,2144.0
2023-04-01T07:00:31.000Z,2162.0
2023-04-01T07:01:32.000Z,2113.0
2023-04-01T07:02:31.000Z,2058.0
2023-04-01T07:03:32.000Z,2181.0
2023-04-01T07:04:32.000Z,2181.0
2023-04-01T07:05:31.000Z,2235.0
2023-04-01T07:06:32.000Z,2230.0
2023-04-01T07:07:31.000Z,2149.0
2023-04-01T07:08:32.000Z,2162.0
2023-04-01T07:09:32.000Z,2186.0
2023-04-01T07:10:31.000Z,2147.0
2023-04-01T07:11:32.000Z,2133.0
2023-04-01T07:12:31.000Z,2179.0
2023-04-01T07:13:32.000Z,2194.0
2023-04-01T07:14:32.000Z,2211.0
2023-04-01T07:15:31.000Z,2102.0
2023-04-01T07:16:32.000Z,2149.0
2023-04-01T07:17:32.000Z,2182.0
2023-04-01T07:18:31.000Z,2085.0
2023-04-01T07:19:32.000Z,2116.0
2023-04-01T07:20:31.000Z,2177.0
2023-04-01T07:21:32.000Z,2215.0
2023-04-01T07:22:32.000Z,2252.0
2023-04-01T07:23:31.000Z,2259.0
2023-04-01T07:24:32.000Z,2324.0
2023-04-01T07:25:32.000Z,2285.0
2023-04-01T07:26:31.000Z,2411.0
2023-04-01T07:27:32.000Z,2311.0
2023-04-01T07:28:31.000Z,2362.0
2023-04-01T07:29:32.000Z,2347.0
2023-04-01T07:30:32.000Z,2328.0
2023-04-01T07:31:31.000Z,2312.0
2023-04-01T07:32:32.000Z,2293.0
2023-04-01T07:33:31.000Z,2331.0
2023-04-01T07:34:32.000Z,2352.0
2023-04-01T07:35:32.000Z,2388.0
2023-04-01T07:36:31.000Z,2379.0
2023-04-01T07:37:32.000Z,2380.0
2023-04-01T07:38:32.000Z,2376.0
2023-04-01T07:39:31.000Z,2424.0
2023-04-01T07:40:32.000Z,2396.0
2023-04-01T07:41:31.000Z,2305.0
2023-04-01T07:42:32.000Z,2210.0
2023-04-01T07:43:32.000Z,2256.0
2023-04-01T07:44:31.000Z,2257.0
2023-04-01T07:45:32.000Z,2214.0
2023-04-01T07:46:32.000Z,2215.0
2023-04-01T07:47:31.000Z,2273.0
2023-04-01T07:48:32.000Z,2363.0
2023-04-01T07:49:31.000Z,2258.0
2023-04-01T07:50:32.000Z,2349.0
2023-04-01T07:51:32.000Z,2344.0
2023-04-01T07:52:31.000Z,2463.0
2023-04-01T07:53:32.000Z,2516.0
2023-04-01T07:54:31.000Z,3040.0
2023-04-01T07:55:32.000Z,3462.0
2023-04-01T07:56:32.000Z,3751.0
2023-04-01T07:57:31.000Z,4025.0
2023-04-01T07:58:32.000Z,4252.0
2023-04-01T07:59:32.000Z,4612.0
2023-04-01T08:00:31.000Z,4699.0
2023-04-01T08:01:32.000Z,4973.0
2023-04-01T08:02:31.000Z,4809.0
2023-04-01T08:03:32.000Z,4746.0
2023-04-01T08:04:32.000Z,5302.0
2023-04-01T08:05:31.000Z,5933.0
2023-04-01T08:06:32.000Z,6121.0
2023-04-01T08:07:31.000Z,5925.0
2023-04-01T08:08:32.000Z,5796.0
2023-04-01T08:09:32.000Z,6029.0
2023-04-01T08:10:31.000Z,6081.0
2023-04-01T08:11:32.000Z,5964.0
2023-04-01T08:12:32.000Z,5890.0
2023-04-01T08:13:31.000Z,6067.0
2023-04-01T08:14:32.000Z,5987.0
2023-04-01T08:15:31.000Z,6085.0
2023-04-01T08:16:32.000Z,5977.0
2023-04-01T08:17:32.000Z,5567.0
2023-04-01T08:18:31.000Z,5285.0
2023-04-01T08:19:32.000Z,5237.0
2023-04-01T08:20:31.000Z,5269.0
2023-04-01T08:21:32.000Z,5321.0
2023-04-01T08:22:32.000Z,5167.0
2023-04-01T08:23:31.000Z,5169.0
2023-04-01T08:24:32.000Z,5116.0
2023-04-01T08:25:32.000Z,5117.0
2023-04-01T08:26:31.000Z,4819.0
2023-04-01T08:27:32.000Z,4993.0
2023-04-01T08:28:31.000Z,5209.0
2023-04-01T08:29:32.000Z,5204.0
2023-04-01T08:30:32.000Z,5183.0
2023-04-01T08:31:31.000Z,5250.0
2023-04-01T08:32:32.000Z,5271.0
2023-04-01T08:33:31.000Z,5118.0
2023-04-01T08:34:32.000Z,4862.0
2023-04-01T08:35:32.000Z,4926.0
2023-04-01T08:36:31.000Z,4827.0
2023-04-01T08:37:32.000Z,4663.0
2023-04-01T08:38:32.000Z,4802.0
2023-04-01T08:39:31.000Z,5023.0
2023-04-01T08:40:32.000Z,5047.0
2023-04-01T08:41:31.000Z,5210.0
2023-04-01T08:42:32.000Z,5184.0
2023-04-01T08:43:32.000Z,5185.0
2023-04-01T08:44:31.000Z,5089.0
2023-04-01T08:45:32.000Z,5239.0
2023-04-01T08:46:32.000Z,5323.0
2023-04-01T08:47:31.000Z,5490.0
2023-04-01T08:48:32.000Z,5776.0
2023-04-01T08:49:32.000Z,5366.0
2023-04-01T08:50:31.000Z,5506.0
2023-04-01T08:51:32.000Z,5204.0
2023-04-01T08:52:31.000Z,5113.0
2023-04-01T08:53:32.000Z,4926.0
2023-04-01T08:54:32.000Z,5072.0
2023-04-01T08:55:31.000Z,5056.0
2023-04-01T08:56:32.000Z,5210.0
2023-04-01T08:57:32.000Z,5016.0
2023-04-01T08:58:31.000Z,4991.0
2023-04-01T08:59:32.000Z,4872.0
2023-04-01T09:00:31.000Z,4729.0
2023-04-01T09:01:32.000Z,4681.0
2023-04-01T09:02:32.000Z,4795.0
2023-04-01T09:03:31.000Z,4840.0
2023-04-01T09:04:32.000Z,4585.0
2023-04-01T09:05:31.000Z,4672.0
2023-04-01T09:06:32.000Z,4575.0
2023-04-01T09:07:32.000Z,4864.0
2023-04-01T09:08:31.000Z,4957.0
2023-04-01T09:09:32.000Z,5058.0
2023-04-01T09:10:31.000Z,4930.0
2023-04-01T09:11:31.000Z,4928.0
2023-04-01T09:12:32.000Z,5418.0
2023-04-01T09:13:31.000Z,5564.0
2023-04-01T09:14:32.000Z,5712.0
2023-04-01T09:15:32.000Z,5818.0
2023-04-01T09:16:31.000Z,5774.0
2023-04-01T09:17:32.000Z,5845.0
2023-04-01T09:18:31.000Z,5556.0
2023-04-01T09:19:32.000Z,5457.0
2023-04-01T09:20:32.000Z,5224.0
2023-04-01T09:21:31.000Z,4972.0
2023-04-01T09:22:32.000Z,4881.0
2023-04-01T09:23:32.000Z,4707.0
2023-04-01T09:24:31.000Z,4766.0
2023-04-01T09:25:32.000Z,5197.0
2023-04-01T09:26:31.000Z,4910.0
2023-04-01T09:27:32.000Z,4687.0
2023-04-01T09:28:32.000Z,4863.0
2023-04-01T09:29:31.000Z,5102.0
2023-04-01T09:30:32.000Z,5278.0
2023-04-01T09:31:31.000Z,5477.0
2023-04-01T09:32:32.000Z,5160.0
2023-04-01T09:33:32.000Z,5281.0
2023-04-01T09:34:31.000Z,5036.0
2023-04-01T09:35:32.000Z,5208.0
2023-04-01T09:36:31.000Z,5227.0
2023-04-01T09:37:31.000Z,4865.0
2023-04-01T09:38:32.000Z,5193.0
2023-04-01T09:39:31.000Z,4999.0
2023-04-01T09:40:32.000Z,4864.0
2023-04-01T09:41:32.000Z,4790.0
2023-04-01T09:42:31.000Z,4873.0
2023-04-01T09:43:32.000Z,4892.0
2023-04-01T09:44:32.000Z,4905.0
2023-04-01T09:45:31.000Z,4484.0
2023-04-01T09:46:32.000Z,4636.0
2023-04-01T09:47:31.000Z,4917.0
2023-04-01T09:48:31.000Z,4903.0
2023-04-01T09:49:32.000Z,5152.0
2023-04-01T09:50:31.000Z,5132.0
2023-04-01T09:51:32.000Z,4962.0
2023-04-01T09:52:32.000Z,5033.0
2023-04-01T09:53:31.000Z,4834.0
2023-04-01T09:54:32.000Z,4871.0
2023-04-01T09:55:31.000Z,4996.0
2023-04-01T09:56:32.000Z,4977.0
2023-04-01T09:57:32.000Z,5385.0
2023-04-01T09:58:31.000Z,5680.0
2023-04-01T09:59:32.000Z,5536.0
2023-04-01T10:00:32.000Z,5371.0
2023-04-01T10:01:31.000Z,5080.0
2023-04-01T10:02:32.000Z,5028.0
2023-04-01T10:03:31.000Z,5086.0
2023-04-01T10:04:32.000Z,5018.0
2023-04-01T10:05:32.000Z,5058.0
2023-04-01T10:06:31.000Z,5032.0
2023-04-01T10:07:32.000Z,5016.0
2023-04-01T10:08:31.000Z,5157.0
2023-04-01T10:09:32.000Z,4892.0
2023-04-01T10:10:32.000Z,5121.0
2023-04-01T10:11:31.000Z,4787.0
2023-04-01T10:12:32.000Z,4591.0
2023-04-01T10:13:32.000Z,4679.0
2023-04-01T10:14:31.000Z,4548.0
2023-04-01T10:15:32.000Z,4541.0
2023-04-01T10:16:31.000Z,4557.0
2023-04-01T10:17:32.000Z,4658.0
2023-04-01T10:18:32.000Z,4768.0
2023-04-01T10:19:31.000Z,4769.0
2023-04-01T10:20:32.000Z,4983.0
2023-04-01T10:21:31.000Z,4654.0
2023-04-01T10:22:32.000Z,4606.0
2023-04-01T10:23:32.000Z,4841.0
2023-04-01T10:24:31.000Z,4599.0
2023-04-01T10:25:32.000Z,4714.0
2023-04-01T10:26:32.000Z,4431.0
2023-04-01T10:27:31.000Z,4196.0
2023-04-01T10:28:32.000Z,3990.0
2023-04-01T10:29:31.000Z,4186.0
2023-04-01T10:30:32.000Z,4359.0
2023-04-01T10:31:32.000Z,4516.0
2023-04-01T10:32:31.000Z,4322.0
2023-04-01T10:33:32.000Z,4161.0
2023-04-01T10:34:31.000Z,4276.0
2023-04-01T10:35:32.000Z,4372.0
2023-04-01T10:36:32.000Z,4353.0
2023-04-01T10:37:31.000Z,4257.0
2023-04-01T10:38:32.000Z,3994.0
2023-04-01T10:39:32.000Z,4128.0
2023-04-01T10:40:31.000Z,4171.0
2023-04-01T10:41:32.000Z,4324.0
2023-04-01T10:42:31.000Z,4424.0
2023-04-01T10:43:32.000Z,4174.0
2023-04-01T10:44:32.000Z,4064.0
2023-04-01T10:45:31.000Z,4031.0
2023-04-01T10:46:32.000Z,4212.0
2023-04-01T10:47:32.000Z,4211.0
2023-04-01T10:48:31.000Z,4028.0
2023-04-01T10:49:32.000Z,4151.0
2023-04-01T10:50:32.000Z,4204.0
2023-04-01T10:51:31.000Z,4343.0
2023-04-01T10:52:32.000Z,4191.0
2023-04-01T10:53:31.000Z,4011.0
2023-04-01T10:54:32.000Z,4076.0
2023-04-01T10:55:32.000Z,4208.0
2023-04-01T10:56:31.000Z,4163.0
2023-04-01T10:57:32.000Z,3998.0
2023-04-01T10:58:31.000Z,4059.0
2023-04-01T10:59:32.000Z,3858.0
2023-04-01T11:00:32.000Z,3860.0
2023-04-01T11:01:31.000Z,3887.0
2023-04-01T11:02:32.000Z,3860.0
2023-04-01T11:03:32.000Z,3884.0
2023-04-01T11:04:31.000Z,3926.0
2023-04-01T11:05:32.000Z,3970.0
2023-04-01T11:06:31.000Z,3897.0
2023-04-01T11:07:32.000Z,3926.0
2023-04-01T11:08:32.000Z,4154.0
2023-04-01T11:09:31.000Z,4122.0
2023-04-01T11:10:32.000Z,4099.0
2023-04-01T11:11:31.000Z,3960.0
2023-04-01T11:12:32.000Z,4047.0
2023-04-01T11:13:32.000Z,4280.0
2023-04-01T11:14:31.000Z,4263.0
2023-04-01T11:15:32.000Z,4373.0
2023-04-01T11:16:32.000Z,4496.0
2023-04-01T11:17:31.000Z,4272.0
2023-04-01T11:18:32.000Z,4233.0
2023-04-01T11:19:31.000Z,4225.0
2023-04-01T11:20:32.000Z,4138.0
2023-04-01T11:21:32.000Z,4141.0
2023-04-01T11:22:31.000Z,4303.0
2023-04-01T11:23:32.000Z,4404.0
2023-04-01T11:24:31.000Z,4463.0
2023-04-01T11:25:32.000Z,4487.0
2023-04-01T11:26:32.000Z,4400.0
2023-04-01T11:27:31.000Z,4435.0
2023-04-01T11:28:32.000Z,4366.0
2023-04-01T11:29:32.000Z,4528.0
2023-04-01T11:30:31.000Z,4357.0
2023-04-01T11:31:32.000Z,4770.0
2023-04-01T11:32:31.000Z,5123.0
2023-04-01T11:33:32.000Z,4833.0
2023-04-01T11:34:32.000Z,4784.0
2023-04-01T11:35:31.000Z,4517.0
2023-04-01T11:36:32.000Z,4501.0
2023-04-01T11:37:31.000Z,4270.0
2023-04-01T11:38:31.000Z,4118.0
2023-04-01T11:40:31.000Z,4022.0
2023-04-01T11:41:32.000Z,4131.0
2023-04-01T11:42:32.000Z,4205.0
2023-04-01T11:43:31.000Z,4365.0
2023-04-01T11:45:32.000Z,4440.0
2023-04-01T11:46:31.000Z,4569.0
2023-04-01T11:47:32.000Z,4629.0
2023-04-01T11:48:31.000Z,4634.0
2023-04-01T11:49:32.000Z,4835.0
2023-04-01T11:50:32.000Z,4870.0
2023-04-01T11:51:31.000Z,5056.0
2023-04-01T11:52:32.000Z,5060.0
2023-04-01T11:53:32.000Z,4834.0
2023-04-01T11:54:31.000Z,4802.0
2023-04-01T11:55:32.000Z,4970.0
2023-04-01T11:56:31.000Z,4855.0
2023-04-01T11:57:32.000Z,4819.0
2023-04-01T11:58:32.000Z,4973.0
2023-04-01T11:59:31.000Z,5041.0
2023-04-01T12:00:32.000Z,5242.0
2023-04-01T12:01:31.000Z,5102.0
2023-04-01T12:02:32.000Z,4918.0
2023-04-01T12:03:32.000Z,4841.0
2023-04-01T12:04:31.000Z,4832.0
2023-04-01T12:05:32.000Z,5194.0
2023-04-01T12:06:32.000Z,4902.0
2023-04-01T12:07:31.000Z,5037.0
2023-04-01T12:08:32.000Z,5367.0
2023-04-01T12:09:31.000Z,5367.0
2023-04-01T12:10:32.000Z,5350.0
2023-04-01T12:11:32.000Z,5312.0
2023-04-01T12:12:31.000Z,5133.0
2023-04-01T12:13:32.000Z,5238.0
2023-04-01T12:14:31.000Z,5259.0
2023-04-01T12:15:31.000Z,5156.0
2023-04-01T12:16:32.000Z,5020.0
2023-04-01T12:17:31.000Z,4333.0
2023-04-01T12:18:32.000Z,4235.0
2023-04-01T12:19:32.000Z,3893.0
2023-04-01T12:20:31.000Z,3660.0
2023-04-01T12:21:32.000Z,3407.0
2023-04-01T12:22:31.000Z,2907.0
2023-04-01T12:23:32.000Z,2879.0
2023-04-01T12:24:32.000Z,2841.0
2023-04-01T12:25:31.000Z,3030.0
2023-04-01T12:26:32.000Z,3216.0
2023-04-01T12:27:31.000Z,3173.0
2023-04-01T12:28:31.000Z,3034.0
2023-04-01T12:29:32.000Z,3032.0
2023-04-01T12:30:31.000Z,2990.0